createdAt,value
2022-08-26T00:00:39.106Z,3.65
2022-08-26T00:03:01.776Z,3.40
2022-08-26T00:05:25.808Z,3.30
2022-08-26T00:07:48.549Z,3.70
2022-08-26T00:10:12.119Z,3.63
2022-08-26T00:12:37.528Z,3.10
2022-08-26T00:15:00.649Z,3.55
2022-08-26T00:17:24.033Z,3.72
2022-08-26T00:19:48.972Z,3.58
2022-08-26T00:22:13.913Z,4.00
2022-08-26T00:24:48.062Z,4.47
2022-08-26T00:27:10.505Z,3.70
2022-08-26T00:29:35.471Z,3.65
2022-08-26T00:32:00.227Z,3.80
2022-08-26T00:34:22.515Z,4.15
2022-08-26T00:36:44.914Z,3.05
2022-08-26T00:39:07.452Z,4.20
2022-08-26T00:41:30.017Z,4.15
2022-08-26T00:43:52.688Z,3.92
2022-08-26T00:46:17.458Z,4.28
2022-08-26T00:48:40.649Z,3.53
2022-08-26T00:51:24.610Z,4.53
2022-08-26T00:53:54.387Z,3.65
2022-08-26T00:56:34.846Z,4.35
2022-08-26T00:58:58.870Z,3.55
2022-08-26T01:01:23.071Z,3.72
2022-08-26T01:03:47.088Z,4.43
2022-08-26T01:06:12.392Z,3.75
2022-08-26T01:08:35.287Z,4.20
2022-08-26T01:10:58.397Z,3.60
2022-08-26T01:13:21.228Z,4.35
2022-08-26T01:15:45.075Z,3.55
2022-08-26T01:18:08.345Z,3.70
2022-08-26T01:20:33.614Z,3.90
2022-08-26T01:23:01.711Z,4.15
2022-08-26T01:25:28.052Z,4.20
2022-08-26T01:27:51.148Z,3.70
2022-08-26T01:30:13.776Z,3.85
2022-08-26T01:32:36.330Z,3.75
2022-08-26T01:35:01.643Z,3.47
2022-08-26T01:37:26.035Z,3.63
2022-08-26T01:39:49.556Z,3.97
2022-08-26T01:42:14.069Z,4.15
2022-08-26T01:44:40.529Z,3.97
2022-08-26T01:47:05.014Z,4.30
2022-08-26T01:49:29.293Z,4.00
2022-08-26T01:51:55.360Z,4.53
2022-08-26T01:54:17.932Z,3.40
2022-08-26T01:56:43.114Z,3.85
2022-08-26T01:59:07.917Z,4.20
2022-08-26T02:01:31.952Z,4.40
2022-08-26T02:04:13.732Z,3.85
2022-08-26T02:06:37.150Z,4.00
2022-08-26T02:09:01.760Z,3.95
2022-08-26T02:11:24.254Z,3.53
2022-08-26T02:14:01.622Z,4.22
2022-08-26T02:16:27.615Z,4.53
2022-08-26T02:18:50.772Z,4.53
2022-08-26T02:21:15.921Z,4.10
2022-08-26T02:23:38.717Z,4.47
2022-08-26T02:26:04.536Z,4.00
2022-08-26T02:28:28.975Z,4.32
2022-08-26T02:30:51.528Z,5.00
2022-08-26T02:33:14.300Z,5.53
2022-08-26T02:35:38.001Z,4.85
2022-08-26T02:38:01.082Z,5.07
2022-08-26T02:40:26.615Z,4.55
2022-08-26T02:42:49.006Z,4.82
2022-08-26T02:45:11.940Z,4.20
2022-08-26T02:47:34.214Z,4.00
2022-08-26T02:49:57.045Z,4.40
2022-08-26T02:52:19.681Z,4.60
2022-08-26T02:54:45.043Z,4.50
2022-08-26T02:57:07.974Z,4.60
2022-08-26T02:59:31.352Z,4.90
2022-08-26T03:01:56.032Z,4.35
2022-08-26T03:04:18.726Z,5.22
2022-08-26T03:06:41.544Z,5.20
2022-08-26T03:09:04.731Z,5.28
2022-08-26T03:11:30.934Z,5.45
2022-08-26T03:13:55.516Z,4.47
2022-08-26T03:16:18.612Z,4.53
2022-08-26T03:18:41.989Z,5.05
2022-08-26T03:21:11.636Z,5.57
2022-08-26T03:23:35.028Z,5.53
2022-08-26T03:25:57.541Z,5.82
2022-08-26T03:28:20.293Z,5.60
2022-08-26T03:30:44.883Z,6.05
2022-08-26T03:33:08.907Z,5.03
2022-08-26T03:35:32.010Z,6.00
2022-08-26T03:37:54.598Z,6.72
2022-08-26T03:40:20.384Z,6.13
2022-08-26T03:42:45.361Z,7.43
2022-08-26T03:45:09.060Z,11.45
2022-08-26T03:47:31.858Z,7.90
2022-08-26T03:49:54.473Z,10.40
2022-08-26T03:52:16.745Z,15.27
2022-08-26T03:54:39.749Z,12.30
2022-08-26T03:57:02.153Z,16.70
2022-08-26T03:59:24.450Z,17.33
2022-08-26T04:01:47.044Z,15.40
2022-08-26T04:04:10.491Z,16.08
2022-08-26T04:06:39.257Z,13.55
2022-08-26T04:09:02.857Z,15.80
2022-08-26T04:11:30.355Z,16.23
2022-08-26T04:13:54.414Z,15.52
2022-08-26T04:16:17.378Z,15.77
2022-08-26T04:18:46.413Z,22.05
2022-08-26T04:21:09.313Z,20.38
2022-08-26T04:23:32.900Z,22.75
2022-08-26T04:26:09.617Z,26.67
2022-08-26T04:28:32.364Z,30.38
2022-08-26T04:30:54.655Z,28.48
2022-08-26T04:33:16.951Z,28.13
2022-08-26T04:35:50.968Z,28.27
2022-08-26T04:38:16.255Z,34.10
2022-08-26T04:40:43.312Z,29.85
2022-08-26T04:43:09.153Z,31.95
2022-08-26T04:45:31.564Z,31.77
2022-08-26T04:47:56.274Z,34.40
2022-08-26T04:50:20.203Z,42.80
2022-08-26T04:52:45.892Z,39.72
2022-08-26T04:55:08.765Z,37.17
2022-08-26T04:57:31.871Z,43.35
2022-08-26T04:59:54.601Z,41.85
2022-08-26T05:02:16.848Z,44.30
2022-08-26T05:04:44.681Z,48.63
2022-08-26T05:07:08.010Z,45.55
2022-08-26T05:09:31.997Z,45.50
2022-08-26T05:11:54.369Z,44.90
2022-08-26T05:14:16.743Z,43.95
2022-08-26T05:16:40.435Z,45.72
2022-08-26T05:19:03.655Z,46.17
2022-08-26T05:21:28.961Z,46.97
2022-08-26T05:23:51.844Z,46.58
2022-08-26T05:26:14.466Z,46.70
2022-08-26T05:28:38.941Z,46.45
2022-08-26T05:31:02.253Z,44.03
2022-08-26T05:33:24.800Z,43.75
2022-08-26T05:35:47.299Z,47.40
2022-08-26T05:38:12.795Z,46.85
2022-08-26T05:40:37.328Z,50.30
2022-08-26T05:43:00.226Z,49.35
2022-08-26T05:45:27.335Z,48.60
2022-08-26T05:47:49.918Z,47.50
2022-08-26T05:50:13.320Z,46.20
2022-08-26T05:52:36.909Z,49.58
2022-08-26T05:54:59.308Z,48.00
2022-08-26T05:57:23.061Z,45.08
2022-08-26T05:59:45.544Z,44.85
2022-08-26T06:02:08.211Z,43.25
2022-08-26T06:04:31.340Z,43.03
2022-08-26T06:06:53.723Z,42.58
2022-08-26T06:09:18.248Z,42.33
2022-08-26T06:11:40.684Z,41.45
2022-08-26T06:14:05.295Z,38.00
2022-08-26T06:16:27.729Z,40.42
2022-08-26T06:18:50.656Z,37.40
2022-08-26T06:21:13.084Z,36.60
2022-08-26T06:23:54.083Z,36.85
2022-08-26T06:26:16.812Z,34.92
2022-08-26T06:28:39.052Z,34.45
2022-08-26T06:31:03.037Z,31.35
2022-08-26T06:33:27.961Z,29.00
2022-08-26T06:35:50.871Z,28.40
2022-08-26T06:38:13.940Z,26.45
2022-08-26T06:40:48.440Z,28.73
2022-08-26T06:43:10.957Z,26.40
2022-08-26T06:45:34.665Z,28.38
2022-08-26T06:47:57.158Z,26.17
2022-08-26T06:50:19.554Z,25.52
2022-08-26T06:52:42.556Z,27.42
2022-08-26T06:55:05.619Z,25.40
2022-08-26T06:57:28.574Z,23.88
2022-08-26T06:59:54.000Z,24.17
2022-08-26T07:02:16.236Z,25.38
2022-08-26T07:04:40.158Z,23.50
2022-08-26T07:07:02.641Z,23.05
2022-08-26T07:09:26.884Z,25.17
2022-08-26T07:11:51.207Z,22.67
2022-08-26T07:14:13.808Z,22.75
2022-08-26T07:16:36.331Z,23.00
2022-08-26T07:18:59.218Z,23.17
2022-08-26T07:21:24.477Z,22.85
2022-08-26T07:23:46.979Z,22.88
2022-08-26T07:26:22.749Z,21.17
2022-08-26T07:28:48.445Z,22.42
2022-08-26T07:31:11.635Z,20.52
2022-08-26T07:33:39.510Z,21.40
2022-08-26T07:36:04.298Z,19.38
2022-08-26T07:38:27.009Z,20.10
2022-08-26T07:40:49.668Z,19.98
2022-08-26T07:43:12.266Z,19.45
2022-08-26T07:45:34.701Z,16.27
2022-08-26T07:47:57.048Z,16.88
2022-08-26T07:50:22.276Z,18.05
2022-08-26T07:53:05.307Z,17.33
2022-08-26T07:55:27.873Z,16.05
2022-08-26T07:57:50.273Z,16.27
2022-08-26T08:00:13.612Z,15.15
2022-08-26T08:02:36.808Z,13.82
2022-08-26T08:04:59.821Z,14.95
2022-08-26T08:07:38.289Z,15.27
2022-08-26T08:10:01.215Z,14.48
2022-08-26T08:12:23.600Z,15.20
2022-08-26T08:14:48.302Z,13.20
2022-08-26T08:19:39.231Z,13.07
2022-08-26T08:22:04.972Z,12.90
2022-08-26T08:24:39.501Z,13.10
2022-08-26T08:27:02.419Z,12.40
2022-08-26T08:29:24.835Z,13.13
2022-08-26T08:31:57.033Z,11.98
2022-08-26T08:34:21.616Z,11.50
2022-08-26T08:36:46.393Z,11.43
2022-08-26T08:39:08.799Z,11.13
2022-08-26T08:41:50.261Z,11.65
2022-08-26T08:44:15.504Z,11.27
2022-08-26T08:46:38.640Z,10.45
2022-08-26T08:49:01.093Z,10.52
2022-08-26T08:51:42.146Z,10.00
2022-08-26T08:54:06.886Z,8.90
2022-08-26T08:56:29.283Z,10.10
2022-08-26T08:58:57.947Z,10.23
2022-08-26T09:01:29.465Z,10.43
2022-08-26T09:04:10.623Z,9.55
2022-08-26T09:06:33.389Z,9.32
2022-08-26T09:08:57.005Z,10.43
2022-08-26T09:11:20.872Z,9.73
2022-08-26T09:13:46.045Z,9.85
2022-08-26T09:16:11.505Z,9.60
2022-08-26T09:18:39.841Z,9.88
2022-08-26T09:21:07.748Z,8.38
2022-08-26T09:23:30.778Z,9.15
2022-08-26T09:28:23.574Z,8.85
2022-08-26T09:30:47.929Z,8.52
2022-08-26T09:33:11.463Z,7.40
2022-08-26T09:35:35.884Z,8.13
2022-08-26T09:37:58.834Z,8.18
2022-08-26T09:40:27.583Z,8.95
2022-08-26T09:43:09.336Z,8.48
2022-08-26T09:45:31.748Z,8.45
2022-08-26T09:47:55.958Z,8.27
2022-08-26T09:50:29.136Z,7.90
2022-08-26T09:53:09.854Z,9.00
2022-08-26T09:55:35.270Z,8.52
2022-08-26T09:58:02.238Z,8.57
2022-08-26T10:00:34.016Z,7.25
2022-08-26T10:02:58.146Z,6.78
2022-08-26T10:05:29.262Z,7.55
2022-08-26T10:07:52.466Z,7.75
2022-08-26T10:10:18.047Z,7.18
2022-08-26T10:12:45.232Z,8.55
2022-08-26T10:15:10.335Z,7.85
2022-08-26T10:17:40.591Z,7.55
2022-08-26T10:20:24.107Z,7.32
2022-08-26T10:22:54.159Z,6.28
2022-08-26T10:25:19.461Z,6.90
2022-08-26T10:27:50.977Z,6.38
2022-08-26T10:30:18.941Z,7.80
2022-08-26T10:32:43.462Z,6.07
2022-08-26T10:35:08.293Z,7.25
2022-08-26T10:37:36.389Z,7.20
2022-08-26T10:40:01.384Z,6.78
2022-08-26T10:42:31.052Z,7.25
2022-08-26T10:44:58.642Z,8.13
2022-08-26T10:47:31.763Z,6.85
2022-08-26T10:50:02.864Z,6.45
2022-08-26T10:52:40.029Z,6.93
2022-08-26T10:55:25.839Z,7.20
2022-08-26T10:57:56.394Z,7.65
2022-08-26T11:00:57.580Z,6.70
2022-08-26T11:03:21.850Z,6.53
2022-08-26T11:05:45.412Z,7.00
2022-08-26T11:08:41.288Z,6.72
2022-08-26T11:11:04.847Z,6.57
2022-08-26T11:13:59.766Z,6.80
2022-08-26T11:16:43.355Z,5.97
2022-08-26T11:19:09.918Z,6.40
2022-08-26T11:21:51.913Z,5.78
2022-08-26T11:24:33.685Z,6.22
2022-08-26T11:26:58.314Z,5.82
2022-08-26T11:29:41.834Z,5.97
2022-08-26T11:32:04.263Z,5.47
2022-08-26T11:34:46.633Z,6.20
2022-08-26T11:37:16.942Z,6.05
2022-08-26T11:39:57.050Z,5.63
2022-08-26T11:42:35.461Z,6.38
2022-08-26T11:45:05.932Z,5.93
2022-08-26T11:47:32.520Z,6.53
2022-08-26T11:50:09.499Z,6.32
2022-08-26T11:52:32.668Z,5.07
2022-08-26T11:55:02.178Z,6.20
2022-08-26T11:57:24.598Z,5.80
2022-08-26T11:59:54.481Z,5.90
2022-08-26T12:02:18.217Z,6.57
2022-08-26T12:04:46.468Z,5.72
2022-08-26T12:07:11.765Z,5.90
2022-08-26T12:09:35.647Z,5.70
2022-08-26T12:12:12.135Z,5.85
2022-08-26T12:14:34.651Z,6.35
2022-08-26T12:17:10.869Z,5.95
2022-08-26T12:19:34.237Z,6.20
2022-08-26T12:22:03.548Z,5.43
2022-08-26T12:24:26.269Z,5.78
2022-08-26T12:26:48.850Z,5.85
2022-08-26T12:29:26.733Z,5.78
2022-08-26T12:31:53.439Z,4.72
2022-08-26T12:34:18.119Z,5.53
2022-08-26T12:36:51.419Z,5.82
2022-08-26T12:39:15.421Z,4.82
2022-08-26T12:41:43.600Z,5.60
2022-08-26T12:44:06.001Z,5.80
2022-08-26T12:46:29.335Z,5.22
2022-08-26T12:48:51.959Z,4.82
2022-08-26T12:51:26.046Z,4.97
2022-08-26T12:53:48.524Z,5.28
2022-08-26T12:56:29.679Z,5.38
2022-08-26T12:59:21.384Z,4.60
2022-08-26T13:01:44.645Z,4.80
2022-08-26T13:04:07.141Z,4.68
2022-08-26T13:06:31.099Z,5.25
2022-08-26T13:09:00.959Z,5.38
2022-08-26T13:11:23.705Z,5.03
2022-08-26T13:13:45.940Z,4.65
2022-08-26T13:16:09.655Z,5.28
2022-08-26T13:18:31.991Z,4.45
2022-08-26T13:20:54.260Z,5.13
2022-08-26T13:23:16.627Z,5.13
2022-08-26T13:25:38.869Z,4.53
2022-08-26T13:28:01.101Z,4.70
2022-08-26T13:30:23.416Z,4.07
2022-08-26T13:32:45.642Z,4.18
2022-08-26T13:35:08.099Z,4.30
2022-08-26T13:37:34.902Z,4.40
2022-08-26T13:39:58.243Z,4.80
2022-08-26T13:42:21.889Z,4.72
2022-08-26T13:44:45.240Z,5.43
2022-08-26T13:47:08.386Z,4.40
2022-08-26T13:49:30.613Z,4.13
2022-08-26T13:51:52.853Z,4.30
2022-08-26T13:54:15.182Z,4.90
2022-08-26T13:56:37.534Z,4.50
2022-08-26T13:59:01.015Z,5.43
2022-08-26T14:01:23.944Z,4.32
2022-08-26T14:03:46.382Z,5.10
2022-08-26T14:06:08.961Z,4.45
2022-08-26T14:08:32.587Z,4.65
2022-08-26T14:10:54.935Z,4.38
2022-08-26T14:13:17.324Z,4.30
2022-08-26T14:15:39.685Z,3.85
2022-08-26T14:18:06.063Z,4.07
2022-08-26T14:20:31.723Z,3.92
2022-08-26T14:23:13.287Z,3.78
2022-08-26T14:25:36.620Z,3.90
2022-08-26T14:27:58.841Z,3.42
2022-08-26T14:30:21.732Z,4.15
2022-08-26T14:32:46.241Z,2.95
2022-08-26T14:35:08.861Z,3.17
2022-08-26T14:37:31.844Z,2.88
2022-08-26T14:39:54.336Z,3.15
2022-08-26T14:42:20.403Z,3.03
2022-08-26T14:44:45.220Z,2.72
2022-08-26T14:47:07.598Z,2.88
2022-08-26T14:49:31.146Z,2.92
2022-08-26T14:51:54.015Z,2.85
2022-08-26T14:54:17.515Z,2.97
2022-08-26T14:56:48.994Z,2.90
2022-08-26T14:59:11.992Z,2.88
2022-08-26T15:01:34.377Z,2.80
2022-08-26T15:03:56.705Z,2.80
2022-08-26T15:06:18.992Z,2.47
2022-08-26T15:08:41.253Z,2.60
2022-08-26T15:11:04.490Z,2.85
2022-08-26T15:13:26.718Z,2.63
2022-08-26T15:15:49.048Z,3.10
2022-08-26T15:18:11.316Z,2.95
2022-08-26T15:23:05.881Z,3.15
2022-08-26T15:25:28.470Z,3.78
2022-08-26T15:27:51.022Z,2.97
2022-08-26T15:30:13.896Z,2.90
2022-08-26T15:32:36.251Z,3.30
2022-08-26T15:34:58.504Z,3.80
2022-08-26T15:37:20.778Z,3.30
2022-08-26T15:39:44.161Z,3.45
2022-08-26T15:42:06.545Z,3.65
2022-08-26T15:44:29.203Z,3.90
2022-08-26T15:46:58.431Z,4.03
2022-08-26T15:49:20.856Z,3.78
2022-08-26T15:51:45.813Z,3.58
2022-08-26T15:54:10.384Z,3.80
2022-08-26T15:56:34.328Z,4.25
2022-08-26T15:58:57.571Z,3.88
2022-08-26T16:01:27.514Z,3.35
2022-08-26T16:03:51.681Z,3.45
2022-08-26T16:06:17.617Z,3.78
2022-08-26T16:08:39.901Z,3.88
2022-08-26T16:11:03.690Z,4.50
2022-08-26T16:13:26.013Z,4.03
2022-08-26T16:15:52.444Z,4.25
2022-08-26T16:18:15.596Z,4.40
2022-08-26T16:20:39.209Z,3.65
2022-08-26T16:23:02.024Z,4.40
2022-08-26T16:25:36.585Z,3.83
2022-08-26T16:27:59.282Z,3.63
2022-08-26T16:30:22.252Z,4.00
2022-08-26T16:32:47.949Z,3.88
2022-08-26T16:35:10.268Z,4.03
2022-08-26T16:37:34.540Z,3.80
2022-08-26T16:39:58.996Z,3.40
2022-08-26T16:42:21.384Z,3.88
2022-08-26T16:44:46.501Z,2.92
2022-08-26T16:47:11.526Z,2.90
2022-08-26T16:49:33.852Z,3.53
2022-08-26T16:51:56.852Z,2.97
2022-08-26T16:54:19.149Z,3.28
2022-08-26T16:56:41.659Z,2.97
2022-08-26T16:59:10.505Z,3.13
2022-08-26T17:01:33.002Z,3.13
2022-08-26T17:03:58.601Z,3.00
2022-08-26T17:06:23.844Z,3.03
2022-08-26T17:08:47.073Z,2.65
2022-08-26T17:11:09.398Z,2.60
2022-08-26T17:13:35.006Z,2.70
2022-08-26T17:15:59.919Z,2.50
2022-08-26T17:18:22.850Z,2.83
2022-08-26T17:20:45.642Z,2.80
2022-08-26T17:23:08.282Z,2.53
2022-08-26T17:25:34.381Z,2.42
2022-08-26T17:30:25.936Z,2.65
2022-08-26T17:32:52.551Z,3.17
2022-08-26T17:35:15.788Z,3.33
2022-08-26T17:37:38.768Z,2.53
2022-08-26T17:40:07.585Z,3.63
2022-08-26T17:42:31.659Z,3.30
2022-08-26T17:44:54.229Z,2.67
2022-08-26T17:47:17.633Z,2.92
2022-08-26T17:49:41.291Z,3.20
2022-08-26T17:52:05.232Z,3.00
2022-08-26T17:54:37.543Z,3.30
2022-08-26T17:57:03.651Z,3.55
2022-08-26T17:59:35.620Z,3.40
2022-08-26T18:01:59.002Z,3.25
2022-08-26T18:04:22.267Z,3.40
2022-08-26T18:06:44.873Z,3.10
2022-08-26T18:09:07.188Z,3.47
2022-08-26T18:11:33.064Z,3.20
2022-08-26T18:13:55.411Z,3.30
2022-08-26T18:16:18.675Z,3.53
2022-08-26T18:18:42.356Z,3.45
2022-08-26T18:21:05.562Z,3.45
2022-08-26T18:23:28.168Z,3.53
2022-08-26T18:25:53.657Z,3.13
2022-08-26T18:28:16.449Z,3.08
2022-08-26T18:30:39.270Z,3.10
2022-08-26T18:33:01.630Z,3.20
2022-08-26T18:35:30.196Z,2.50
2022-08-26T18:37:52.505Z,3.35
2022-08-26T18:40:16.074Z,3.03
2022-08-26T18:42:38.409Z,3.08
2022-08-26T18:45:00.967Z,3.40
2022-08-26T18:47:25.411Z,3.08
2022-08-26T18:49:48.584Z,3.10
2022-08-26T18:52:10.861Z,3.05
2022-08-26T18:54:34.033Z,3.53
2022-08-26T18:56:59.518Z,3.05
2022-08-26T18:59:30.194Z,3.45
2022-08-26T19:01:52.866Z,3.25
2022-08-26T19:04:15.746Z,3.50
2022-08-26T19:06:39.371Z,3.15
2022-08-26T19:09:02.531Z,3.00
2022-08-26T19:11:32.248Z,3.50
2022-08-26T19:13:59.640Z,3.47
2022-08-26T19:16:25.605Z,3.60
2022-08-26T19:18:48.573Z,3.60
2022-08-26T19:21:10.839Z,3.20
2022-08-26T19:23:33.603Z,3.38
2022-08-26T19:26:01.916Z,3.15
2022-08-26T19:28:24.390Z,3.25
2022-08-26T19:30:51.265Z,3.22
2022-08-26T19:33:15.852Z,3.30
2022-08-26T19:35:38.167Z,3.13
2022-08-26T19:38:00.623Z,3.78
2022-08-26T19:40:23.497Z,2.97
2022-08-26T19:42:45.847Z,3.28
2022-08-26T19:45:11.053Z,3.03
2022-08-26T19:47:47.372Z,3.13
2022-08-26T19:50:11.671Z,3.63
2022-08-26T19:52:33.988Z,3.28
2022-08-26T19:54:56.436Z,3.25
2022-08-26T19:57:18.937Z,3.90
2022-08-26T19:59:41.229Z,3.33
2022-08-26T20:02:07.321Z,3.85
2022-08-26T20:04:35.587Z,4.30
2022-08-26T20:07:00.260Z,4.15
2022-08-26T20:09:23.024Z,4.13
2022-08-26T20:11:45.546Z,4.03
2022-08-26T20:14:10.050Z,4.50
2022-08-26T20:16:33.058Z,4.35
2022-08-26T20:19:13.981Z,4.05
2022-08-26T20:21:38.164Z,4.10
2022-08-26T20:24:06.582Z,4.20
2022-08-26T20:26:29.629Z,4.13
2022-08-26T20:28:51.896Z,4.00
2022-08-26T20:31:14.298Z,3.85
2022-08-26T20:33:46.339Z,4.00
2022-08-26T20:36:10.046Z,3.50
2022-08-26T20:38:32.746Z,3.50
2022-08-26T20:40:56.542Z,3.50
2022-08-26T20:43:19.041Z,3.25
2022-08-26T20:45:41.346Z,3.63
2022-08-26T20:48:03.834Z,3.67
2022-08-26T20:50:26.143Z,3.78
2022-08-26T20:52:48.464Z,3.13
2022-08-26T20:55:10.796Z,3.75
2022-08-26T20:57:33.897Z,4.10
2022-08-26T20:59:59.360Z,3.63
2022-08-26T21:02:21.618Z,3.38
2022-08-26T21:04:50.340Z,3.45
2022-08-26T21:07:12.838Z,3.60
2022-08-26T21:09:35.301Z,3.47
2022-08-26T21:12:00.468Z,2.97
2022-08-26T21:14:25.686Z,3.15
2022-08-26T21:16:48.617Z,3.30
2022-08-26T21:19:11.916Z,3.40
2022-08-26T21:21:34.464Z,3.25
2022-08-26T21:23:57.095Z,3.13
2022-08-26T21:26:19.888Z,3.05
2022-08-26T21:28:43.424Z,2.83
2022-08-26T21:31:07.019Z,2.83
2022-08-26T21:33:29.265Z,2.92
2022-08-26T21:35:53.243Z,3.13
2022-08-26T21:38:16.232Z,3.00
2022-08-26T21:40:38.529Z,3.10
2022-08-26T21:43:00.805Z,2.85
2022-08-26T21:45:23.088Z,2.65
2022-08-26T21:47:45.547Z,2.50
2022-08-26T21:50:08.102Z,2.45
2022-08-26T21:52:30.369Z,2.58
2022-08-26T21:54:56.841Z,2.55
2022-08-26T21:57:19.170Z,2.50
2022-08-26T21:59:41.422Z,2.33
2022-08-26T22:02:07.072Z,2.33
2022-08-26T22:04:29.371Z,2.75
2022-08-26T22:06:53.061Z,2.08
2022-08-26T22:09:16.316Z,2.30
2022-08-26T22:11:38.702Z,2.70
2022-08-26T22:14:00.957Z,2.42
2022-08-26T22:16:23.267Z,2.58
2022-08-26T22:18:45.807Z,3.13
2022-08-26T22:21:09.429Z,2.70
2022-08-26T22:23:31.772Z,2.70
2022-08-26T22:25:54.916Z,2.88
2022-08-26T22:28:17.773Z,2.53
2022-08-26T22:30:41.660Z,2.92
2022-08-26T22:33:04.924Z,3.10
2022-08-26T22:35:28.716Z,3.03
2022-08-26T22:37:51.996Z,3.58
2022-08-26T22:40:16.956Z,3.03
2022-08-26T22:42:39.505Z,2.88
2022-08-26T22:45:05.888Z,2.53
2022-08-26T22:47:28.173Z,2.90
2022-08-26T22:49:50.437Z,2.40
2022-08-26T22:52:12.691Z,2.92
2022-08-26T22:54:34.947Z,3.03
2022-08-26T22:56:57.197Z,2.55
2022-08-26T22:59:24.375Z,3.00
2022-08-26T23:01:47.309Z,3.03
2022-08-26T23:04:10.927Z,2.80
2022-08-26T23:06:38.059Z,2.63
2022-08-26T23:09:00.299Z,2.70
2022-08-26T23:11:22.888Z,2.75
2022-08-26T23:13:45.135Z,2.25
2022-08-26T23:16:09.613Z,2.35
2022-08-26T23:18:32.277Z,2.42
2022-08-26T23:20:55.717Z,1.95
2022-08-26T23:23:18.100Z,2.70
2022-08-26T23:25:40.561Z,2.33
2022-08-26T23:28:03.921Z,2.47
2022-08-26T23:30:27.296Z,2.05
2022-08-26T23:32:49.529Z,2.47
2022-08-26T23:35:12.497Z,2.67
2022-08-26T23:37:38.529Z,2.50
2022-08-26T23:40:05.165Z,1.90
2022-08-26T23:42:27.844Z,2.17
2022-08-26T23:44:52.488Z,2.40
2022-08-26T23:47:14.833Z,1.98
2022-08-26T23:49:37.120Z,1.90
2022-08-26T23:52:18.344Z,1.92
2022-08-26T23:54:40.764Z,2.05
2022-08-26T23:57:02.975Z,1.65
2022-08-26T23:59:25.432Z,1.80
